Terminal Aerodrome Forecast
Issued by NWS Northern Indiana

Home | Current Version | Previous Version | Graphics & Text | Print | Product List | Glossary On
Versions: 1 2 3 4 5 6 7 8 9 10 11 12 13 14 15
680
FTUS43 KIWX 090536
TAFFWA
TAF
KFWA 090536Z 0906/1006 28011KT P6SM -SHSN OVC015
     FM090800 28012KT 5SM -SHSN OVC015
     FM091400 30012G19KT P6SM -SHSN OVC025
      TEMPO 1002/1006 5SM -SHSN OVC015=

USA.gov is the U.S. government's official web portal to all federal, state and local government web resources and services.